This is the latest recevied weather packets stored in our database for station/object K2ATL. If no packets are shown the sender has not sent any weather packets the latest 10 day(s).
| Time | Temp. | Humidity | Pressure | Rain* | Wind** | Luminosity | Snow |
|---|---|---|---|---|---|---|---|
| 1787756067 | 23.89° C | 74% | 1105.1 hPa | 0 mm | - | 606 W/m² | - |
| 1787755761 | 22.78° C | 73% | 1105 hPa | 0 mm | - | 593 W/m² | - |
| 1787755456 | 22.22° C | 75% | 1104.7 hPa | 0 mm | - | 570 W/m² | - |
| 1787755155 | 20.56° C | 78% | 1104.8 hPa | 0 mm | - | 555 W/m² | - |
| 1787754849 | 23.33° C | 79% | 1104.8 hPa | 0 mm | - | 59 W/m² | - |
| 1787754549 | 22.78° C | 79% | 1104.7 hPa | 0 mm | - | 90 W/m² | - |
| 1787754247 | 23.33° C | 77% | 1104.8 hPa | 0 mm | - | 66 W/m² | - |
| 1787753942 | 22.22° C | 79% | 1104.8 hPa | 0 mm | - | 127 W/m² | - |
| 1787753641 | 22.78° C | 78% | 1104.6 hPa | 0 mm | - | 44 W/m² | - |
| 1787753340 | 22.22° C | 78% | 1104.6 hPa | 0 mm | - | 115 W/m² | - |
| 1787753035 | 22.22° C | 80% | 1104.8 hPa | 0 mm | - | 92 W/m² | - |
| 1787752734 | 22.22° C | 79% | 1104.6 hPa | 0 mm | - | 78 W/m² | - |
| 1787752429 | 21.67° C | 80% | 1104.6 hPa | 0 mm | - | 70 W/m² | - |
| 1787752125 | 22.22° C | 79% | 1104.6 hPa | 0 mm | - | 44 W/m² | - |
| 1787751818 | 22.22° C | 79% | 1104.5 hPa | 0 mm | - | 40 W/m² | - |
| 1787751513 | 21.67° C | 80% | 1104.3 hPa | 0 mm | - | 44 W/m² | - |
| 1787751209 | 21.67° C | 80% | 1104.5 hPa | 0 mm | - | 37 W/m² | - |
| 1787750904 | 21.67° C | 80% | 1104.5 hPa | 0 mm | - | 38 W/m² | - |
| 1787750600 | 21.67° C | 80% | 1104.5 hPa | 0 mm | - | 35 W/m² | - |
| 1787750294 | 21.67° C | 80% | 1104.2 hPa | 0 mm | - | 34 W/m² | - |
| 1787749989 | 21.11° C | 81% | 1104.5 hPa | 0 mm | - | 34 W/m² | - |
| 1787749685 | 20.56° C | 82% | 1104.3 hPa | 0 mm | - | 33 W/m² | - |
| 1787749386 | 20.56° C | 82% | 1104.5 hPa | 0 mm | - | 32 W/m² | - |
| 1787749086 | 20.56° C | 82% | 1104.5 hPa | 0 mm | - | 36 W/m² | - |
| 1787748781 | 20.56° C | 82% | 1104.5 hPa | 0 mm | - | 30 W/m² | - |
* Rain latest hour (hover to see other rain measurements)
** Current wind speed in m/s (hover to see current wind gust speed)